Time;durP1;ratioP1;P1;durP2;ratioP2;P2;SDS_P1;SDS_P2;PMS_P1;PMS_P2;Temp;Humidity;BMP_temperature;BMP_pressure;BME280_temperature;BME280_humidity;BME280_pressure;Samples;Min_cycle;Max_cycle;Signal;HPM_P1;HPM_P2
2022/06/27 00:01:38;;;;;;;1.40;1.30;;;19.50;99.90;;;;;;5011387;28;20065;-74
2022/06/27 00:04:04;;;;;;;1.13;0.90;;;19.50;99.90;;;;;;5012889;28;20021;-73
2022/06/27 00:06:30;;;;;;;1.20;0.90;;;19.50;99.90;;;;;;5013627;28;20119;-74
2022/06/27 00:08:55;;;;;;;1.52;0.70;;;19.50;99.90;;;;;;5010669;28;20028;-74
2022/06/27 00:11:22;;;;;;;2.13;0.77;;;19.50;99.90;;;;;;5006348;28;20034;-75
2022/06/27 00:13:48;;;;;;;2.03;0.73;;;19.40;99.90;;;;;;5014073;28;20030;-74
2022/06/27 00:16:13;;;;;;;5.18;0.75;;;19.30;99.90;;;;;;5014308;28;20022;-75
2022/06/27 00:18:39;;;;;;;1.35;0.40;;;19.30;99.90;;;;;;5014504;28;20368;-75
2022/06/27 00:21:05;;;;;;;0.70;0.70;;;19.10;99.90;;;;;;5013033;28;20030;-73
2022/06/27 00:23:30;;;;;;;5.93;0.55;;;19.10;99.90;;;;;;5012949;28;20077;-73
2022/06/27 00:25:56;;;;;;;1.13;0.50;;;18.90;99.90;;;;;;5009954;28;20037;-74
2022/06/27 00:28:22;;;;;;;2.92;0.50;;;18.80;99.90;;;;;;5009725;28;20099;-73
2022/06/27 00:30:48;;;;;;;0.98;0.50;;;18.50;99.90;;;;;;5010476;28;20029;-70
2022/06/27 00:33:13;;;;;;;0.75;0.50;;;18.20;99.90;;;;;;5012523;28;20487;-74
2022/06/27 00:35:39;;;;;;;3.13;0.70;;;18.10;99.90;;;;;;5013027;28;20034;-74
2022/06/27 00:38:05;;;;;;;2.67;0.80;;;17.80;99.90;;;;;;5012059;28;20213;-72
2022/06/27 00:40:30;;;;;;;1.70;0.63;;;17.60;99.90;;;;;;5013066;28;20026;-74
2022/06/27 00:42:58;;;;;;;3.47;1.05;;;;;;;;;;5012770;28;20455;-73
2022/06/27 00:45:24;;;;;;;3.00;0.85;;;;;;;;;;5007901;28;20028;-73
2022/06/27 00:47:50;;;;;;;3.78;1.38;;;17.10;99.90;;;;;;5012743;28;20018;-72
2022/06/27 00:50:16;;;;;;;4.88;1.33;;;17.10;99.90;;;;;;5013578;28;20448;-73
2022/06/27 00:52:42;;;;;;;5.47;1.45;;;17.00;99.90;;;;;;5013470;28;20360;-72
2022/06/27 00:55:08;;;;;;;5.07;1.40;;;16.80;99.90;;;;;;5013069;28;20033;-73
2022/06/27 00:57:34;;;;;;;1.65;1.13;;;16.70;99.90;;;;;;5013626;28;20022;-73
2022/06/27 01:00:00;;;;;;;7.35;1.88;;;16.60;99.90;;;;;;5012504;28;20109;-74
2022/06/27 01:02:26;;;;;;;4.85;1.92;;;16.60;99.90;;;;;;5013918;28;20503;-74
2022/06/27 01:04:52;;;;;;;3.40;1.48;;;16.60;99.90;;;;;;5012293;28;20467;-74
2022/06/27 01:07:17;;;;;;;3.97;1.17;;;16.50;99.90;;;;;;5014754;28;20379;-74
2022/06/27 01:09:43;;;;;;;4.40;1.15;;;16.60;99.90;;;;;;5013119;28;20375;-73
2022/06/27 01:12:10;;;;;;;2.65;1.13;;;16.60;99.90;;;;;;5011914;28;20042;-74
2022/06/27 01:14:35;;;;;;;2.90;1.20;;;16.70;99.90;;;;;;5012562;28;20025;-71
2022/06/27 01:17:02;;;;;;;3.97;1.50;;;16.60;99.90;;;;;;5011602;28;20036;-74
2022/06/27 01:19:27;;;;;;;3.83;1.25;;;16.50;99.90;;;;;;5010948;28;20018;-73
2022/06/27 01:21:55;;;;;;;5.95;1.50;;;16.50;99.90;;;;;;5010949;28;20427;-72
2022/06/27 01:24:23;;;;;;;8.55;1.85;;;16.40;99.90;;;;;;5012923;28;20034;-74
2022/06/27 01:26:50;;;;;;;7.22;1.77;;;16.40;99.90;;;;;;5012064;28;20042;-73
2022/06/27 01:29:16;;;;;;;3.63;1.45;;;16.40;99.90;;;;;;5012603;28;20030;-73
2022/06/27 01:31:43;;;;;;;3.03;1.30;;;16.40;99.90;;;;;;5011251;28;20506;-74
2022/06/27 01:34:09;;;;;;;4.82;1.20;;;16.50;99.90;;;;;;5011882;28;20038;-73
2022/06/27 01:36:41;;;;;;;1.63;1.08;;;16.50;99.90;;;;;;5009241;28;20026;-73
2022/06/27 01:39:09;;;;;;;3.10;1.52;;;16.60;99.90;;;;;;5011088;28;20100;-73
2022/06/27 01:41:35;;;;;;;3.33;1.50;;;16.50;99.90;;;;;;5012346;28;20029;-74
2022/06/27 01:44:02;;;;;;;4.25;1.63;;;16.50;99.90;;;;;;5011875;28;20447;-74
2022/06/27 01:46:41;;;;;;;3.88;1.50;;;16.40;99.90;;;;;;5012328;28;20030;-73
2022/06/27 01:49:08;;;;;;;3.80;1.10;;;16.40;99.90;;;;;;5011798;28;20191;-72
2022/06/27 01:51:35;;;;;;;2.80;1.33;;;16.30;99.90;;;;;;5012145;28;20076;-72
2022/06/27 01:54:01;;;;;;;4.38;1.45;;;16.30;99.90;;;;;;5006215;28;20030;-73
2022/06/27 01:56:26;;;;;;;4.20;1.27;;;16.30;99.90;;;;;;5011648;28;20022;-73
2022/06/27 01:58:57;;;;;;;2.53;1.00;;;16.30;99.90;;;;;;5022773;28;20033;-74
2022/06/27 02:01:26;;;;;;;2.72;1.10;;;16.30;99.90;;;;;;5024632;28;20430;-74
2022/06/27 02:03:53;;;;;;;3.37;0.83;;;16.30;99.90;;;;;;5011236;28;20034;-72
2022/06/27 02:06:19;;;;;;;3.15;0.93;;;16.20;99.90;;;;;;5011921;28;20269;-72
2022/06/27 02:08:46;;;;;;;1.80;1.00;;;16.30;99.90;;;;;;5009945;28;20039;-71
2022/06/27 02:11:15;;;;;;;3.47;1.27;;;16.20;99.90;;;;;;5008572;28;20033;-72
2022/06/27 02:13:42;;;;;;;1.75;1.20;;;16.20;99.90;;;;;;5012127;28;20037;-74
2022/06/27 02:16:16;;;;;;;3.03;1.25;;;16.20;99.90;;;;;;5011849;28;20113;-74
2022/06/27 02:18:43;;;;;;;1.88;1.30;;;16.20;99.90;;;;;;5011548;28;20084;-73
2022/06/27 02:21:11;;;;;;;2.92;1.52;;;16.20;99.90;;;;;;5010981;28;20636;-72
2022/06/27 02:23:38;;;;;;;2.45;1.30;;;16.20;99.90;;;;;;5011592;28;20464;-72
2022/06/27 02:26:06;;;;;;;3.67;1.55;;;16.20;99.90;;;;;;5006035;28;20030;-72
2022/06/27 02:28:33;;;;;;;5.55;1.60;;;16.10;99.90;;;;;;5011993;28;20479;-73
2022/06/27 02:31:00;;;;;;;2.72;1.50;;;16.20;99.90;;;;;;5009180;28;20033;-73
2022/06/27 02:33:43;;;;;;;2.53;1.67;;;16.10;99.90;;;;;;5012049;28;20110;-74
2022/06/27 02:36:13;;;;;;;3.70;1.45;;;16.20;99.90;;;;;;5011450;28;20102;-74
2022/06/27 02:38:41;;;;;;;4.32;1.70;;;16.20;99.90;;;;;;5011792;28;20033;-74
2022/06/27 02:41:10;;;;;;;3.08;1.40;;;16.10;99.90;;;;;;5010708;28;20037;-70
2022/06/27 02:43:38;;;;;;;1.60;1.30;;;16.10;99.90;;;;;;5007310;28;20114;-73
2022/06/27 02:46:04;;;;;;;2.08;1.35;;;16.20;99.90;;;;;;5010879;28;20454;-72
2022/06/27 02:48:31;;;;;;;2.85;1.40;;;16.10;99.90;;;;;;5012139;28;20084;-73
2022/06/27 02:51:14;;;;;;;2.25;1.52;;;16.10;99.90;;;;;;5014682;28;20044;-73
2022/06/27 02:54:00;;;;;;;2.80;1.35;;;16.10;99.90;;;;;;5015518;28;20034;-73
2022/06/27 02:56:27;;;;;;;2.70;1.20;;;16.10;99.90;;;;;;5015818;28;20022;-73
2022/06/27 02:59:32;;;;;;;4.57;1.35;;;16.10;99.90;;;;;;5009281;28;20057;-71
2022/06/27 03:01:58;;;;;;;3.60;1.10;;;16.10;99.90;;;;;;4971848;28;20061;-73
2022/06/27 03:04:24;;;;;;;2.40;1.40;;;16.10;99.90;;;;;;5008053;28;20575;-73
2022/06/27 03:06:49;;;;;;;3.85;1.50;;;16.10;99.90;;;;;;5015122;28;20061;-73
2022/06/27 03:09:17;;;;;;;3.10;1.83;;;16.10;99.90;;;;;;4996769;28;20057;-72
2022/06/27 03:11:45;;;;;;;3.78;1.33;;;16.10;99.90;;;;;;5014694;28;20455;-73
2022/06/27 03:14:10;;;;;;;3.22;1.33;;;16.10;99.90;;;;;;5012605;28;20033;-72
2022/06/27 03:16:36;;;;;;;5.30;1.67;;;16.10;99.90;;;;;;5013005;28;20022;-72
2022/06/27 03:19:03;;;;;;;3.00;1.30;;;16.10;99.90;;;;;;4996757;28;20030;-73
2022/06/27 03:21:29;;;;;;;2.45;1.25;;;16.10;99.90;;;;;;5015036;28;20038;-73
2022/06/27 03:23:54;;;;;;;2.17;1.42;;;16.10;99.90;;;;;;5012756;28;20033;-71
2022/06/27 03:26:20;;;;;;;3.83;1.63;;;16.10;99.90;;;;;;5014255;28;20026;-73
2022/06/27 03:28:46;;;;;;;2.72;1.48;;;16.00;99.90;;;;;;5014380;28;20022;-73
2022/06/27 03:31:13;;;;;;;3.60;1.77;;;16.10;99.90;;;;;;5011670;28;20045;-72
2022/06/27 03:33:39;;;;;;;3.22;1.50;;;16.10;99.90;;;;;;4999578;28;20055;-72
2022/06/27 03:36:05;;;;;;;1.70;1.50;;;16.10;99.90;;;;;;5014030;28;20150;-72
2022/06/27 03:38:31;;;;;;;2.58;1.75;;;16.10;99.90;;;;;;5013242;28;20062;-70
2022/06/27 03:40:57;;;;;;;3.92;1.92;;;16.10;99.90;;;;;;4976522;28;20027;-72
2022/06/27 03:43:23;;;;;;;3.67;1.80;;;16.20;99.90;;;;;;4994778;28;20038;-72
2022/06/27 03:45:49;;;;;;;2.55;1.88;;;16.20;99.90;;;;;;4994733;28;20025;-72
2022/06/27 03:50:59;;;;;;;5.28;2.80;;;16.20;99.90;;;;;;4994140;28;20058;-74
2022/06/27 03:53:25;;;;;;;2.97;2.40;;;16.20;99.90;;;;;;4994457;28;20468;-74
2022/06/27 03:55:50;;;;;;;4.30;2.50;;;16.20;99.90;;;;;;4993191;28;20464;-74
2022/06/27 03:58:16;;;;;;;3.60;2.30;;;16.30;99.90;;;;;;4992401;28;20093;-74
2022/06/27 04:00:42;;;;;;;5.13;2.38;;;16.20;99.90;;;;;;4993927;28;20034;-73
2022/06/27 04:03:08;;;;;;;4.80;2.30;;;16.30;99.90;;;;;;5013376;28;20034;-73
2022/06/27 04:05:33;;;;;;;4.63;2.08;;;16.30;99.90;;;;;;5014053;28;20028;-74
2022/06/27 04:07:59;;;;;;;3.95;1.98;;;16.30;99.90;;;;;;5010316;28;20104;-74
2022/06/27 04:10:25;;;;;;;2.85;2.03;;;16.30;99.90;;;;;;5014052;28;20036;-72
2022/06/27 04:12:50;;;;;;;3.53;2.17;;;16.30;99.90;;;;;;5013589;28;20038;-74
2022/06/27 04:15:16;;;;;;;2.72;2.22;;;16.30;99.90;;;;;;5013489;28;20586;-73
2022/06/27 04:17:42;;;;;;;4.50;2.40;;;16.30;99.90;;;;;;5013818;28;20021;-74
2022/06/27 04:20:08;;;;;;;4.88;2.40;;;16.30;99.90;;;;;;5013188;28;20033;-73
2022/06/27 04:22:34;;;;;;;4.78;2.55;;;16.30;99.90;;;;;;5013354;28;20054;-73
2022/06/27 04:25:00;;;;;;;5.13;2.30;;;16.30;99.90;;;;;;5009858;28;20168;-73
2022/06/27 04:27:27;;;;;;;3.70;2.13;;;16.30;99.90;;;;;;5013266;28;20401;-73
2022/06/27 04:29:53;;;;;;;4.60;2.20;;;16.30;99.90;;;;;;5013371;28;20073;-73
2022/06/27 04:32:21;;;;;;;4.85;3.28;;;16.30;99.90;;;;;;5011287;28;20058;-73
2022/06/27 04:34:48;;;;;;;3.28;2.30;;;16.30;99.90;;;;;;5013226;28;20026;-73
2022/06/27 04:37:14;;;;;;;3.53;2.05;;;16.40;99.90;;;;;;5012711;28;20066;-73
2022/06/27 04:39:40;;;;;;;2.50;2.30;;;16.40;99.90;;;;;;5012520;28;20034;-72
2022/06/27 04:42:06;;;;;;;3.92;2.08;;;16.50;99.90;;;;;;5012509;28;20030;-73
2022/06/27 04:44:34;;;;;;;5.53;2.85;;;16.50;99.90;;;;;;5010247;28;20085;-73
2022/06/27 04:47:02;;;;;;;4.72;2.17;;;16.50;99.90;;;;;;5012398;28;20117;-73
2022/06/27 04:49:28;;;;;;;3.75;2.10;;;16.60;99.90;;;;;;5012949;28;20104;-73
2022/06/27 04:51:54;;;;;;;6.07;1.58;;;16.60;99.90;;;;;;5013055;28;20041;-74
2022/06/27 04:54:22;;;;;;;3.70;1.60;;;16.70;99.90;;;;;;5012239;28;20034;-72
2022/06/27 04:56:48;;;;;;;1.80;1.33;;;16.70;99.90;;;;;;5012870;28;20037;-74
2022/06/27 04:59:14;;;;;;;3.40;1.70;;;16.80;99.90;;;;;;5010698;28;20022;-72
2022/06/27 05:01:40;;;;;;;2.70;1.50;;;16.90;99.90;;;;;;5009909;28;20166;-72
2022/06/27 05:04:05;;;;;;;2.05;1.38;;;16.90;99.90;;;;;;5012126;28;20486;-74
2022/06/27 05:06:31;;;;;;;3.42;1.40;;;17.00;99.90;;;;;;5012586;28;20022;-72
2022/06/27 05:08:58;;;;;;;1.40;1.13;;;17.10;99.90;;;;;;5010475;28;20025;-74
2022/06/27 05:11:24;;;;;;;2.78;1.60;;;17.10;99.90;;;;;;5012054;28;20037;-74
2022/06/27 05:13:50;;;;;;;3.75;1.10;;;17.30;99.90;;;;;;5011457;28;20372;-72
2022/06/27 05:16:17;;;;;;;4.00;1.25;;;17.30;99.90;;;;;;5006719;28;20067;-74
2022/06/27 05:18:43;;;;;;;9.77;1.42;;;17.40;99.90;;;;;;5012391;28;20026;-74
2022/06/27 05:21:10;;;;;;;1.55;1.00;;;17.50;99.90;;;;;;5011891;28;20083;-73
2022/06/27 05:23:37;;;;;;;2.83;1.00;;;17.70;99.90;;;;;;5012439;28;20025;-73
2022/06/27 05:26:03;;;;;;;2.25;1.10;;;17.70;99.90;;;;;;5011769;28;20029;-73
2022/06/27 05:28:29;;;;;;;3.53;1.00;;;17.90;99.90;;;;;;5012160;28;20033;-73
2022/06/27 05:30:55;;;;;;;2.60;1.30;;;18.00;99.90;;;;;;4994550;28;20029;-74
2022/06/27 05:33:22;;;;;;;5.72;1.05;;;18.10;99.90;;;;;;5004060;28;20050;-74
2022/06/27 05:35:48;;;;;;;3.13;1.15;;;18.30;99.90;;;;;;5012601;28;20032;-73
2022/06/27 05:38:15;;;;;;;2.40;1.70;;;18.30;99.90;;;;;;5011732;28;20036;-73
2022/06/27 05:40:41;;;;;;;2.22;1.20;;;18.30;99.90;;;;;;5010391;28;20184;-73
2022/06/27 05:43:07;;;;;;;1.50;1.23;;;18.30;99.90;;;;;;5013789;28;20522;-73
2022/06/27 05:45:33;;;;;;;2.13;1.20;;;18.30;99.90;;;;;;5015266;28;20093;-74
2022/06/27 05:48:03;;;;;;;2.28;1.35;;;18.30;99.90;;;;;;5015372;28;20414;-73
2022/06/27 05:50:30;;;;;;;2.78;1.25;;;18.20;99.90;;;;;;5018048;28;20296;-72
2022/06/27 05:52:59;;;;;;;2.33;1.50;;;18.30;99.90;;;;;;5023622;28;20475;-72
2022/06/27 05:55:29;;;;;;;4.05;1.52;;;18.30;99.90;;;;;;5014747;28;20475;-73
2022/06/27 05:57:58;;;;;;;3.13;1.27;;;18.50;99.90;;;;;;5018349;28;20048;-73
2022/06/27 06:00:24;;;;;;;1.58;1.30;;;18.60;99.90;;;;;;5013706;28;20061;-73
2022/06/27 06:02:50;;;;;;;3.05;1.42;;;18.50;99.90;;;;;;5031826;28;20044;-73
2022/06/27 06:05:17;;;;;;;4.28;1.80;;;18.50;99.90;;;;;;5031215;28;20053;-73
2022/06/27 06:07:43;;;;;;;2.47;1.20;;;18.60;99.90;;;;;;5014913;28;20033;-71
2022/06/27 06:10:09;;;;;;;2.78;1.05;;;18.60;99.90;;;;;;5009841;28;20531;-72
2022/06/27 06:12:35;;;;;;;2.08;1.13;;;18.70;99.90;;;;;;4994397;28;20116;-72
2022/06/27 06:15:05;;;;;;;3.30;1.33;;;18.80;99.90;;;;;;5011420;28;20105;-72
2022/06/27 06:17:33;;;;;;;2.95;1.10;;;18.80;99.90;;;;;;5012246;28;20022;-72
2022/06/27 06:19:59;;;;;;;4.43;1.00;;;18.90;99.90;;;;;;4994354;28;20057;-72
2022/06/27 06:22:25;;;;;;;2.50;1.17;;;18.90;99.90;;;;;;5008531;28;20116;-73
2022/06/27 06:24:51;;;;;;;1.63;0.90;;;19.00;99.90;;;;;;5020809;28;20029;-73
2022/06/27 06:27:17;;;;;;;2.05;0.93;;;18.90;99.90;;;;;;5015084;28;20030;-72
2022/06/27 06:29:44;;;;;;;6.40;1.25;;;18.80;99.90;;;;;;5023640;28;20083;-72
2022/06/27 06:32:11;;;;;;;2.70;1.05;;;18.80;99.90;;;;;;5014210;28;20050;-74
2022/06/27 06:34:37;;;;;;;3.10;1.00;;;18.90;99.90;;;;;;5018014;28;20022;-74
2022/06/27 06:37:05;;;;;;;3.50;0.88;;;19.10;99.90;;;;;;5008968;28;20109;-78
2022/06/27 06:39:31;;;;;;;2.10;1.02;;;19.50;99.90;;;;;;5013050;28;20041;-77
2022/06/27 06:41:59;;;;;;;1.55;0.82;;;19.80;99.90;;;;;;5007991;28;20470;-75
2022/06/27 06:44:25;;;;;;;2.45;0.98;;;19.90;99.90;;;;;;5016142;28;20018;-74
2022/06/27 06:46:52;;;;;;;2.67;0.60;;;20.00;99.90;;;;;;5015506;28;20481;-72
2022/06/27 06:49:18;;;;;;;1.80;0.80;;;20.00;99.90;;;;;;5014569;28;20034;-73
2022/06/27 06:51:44;;;;;;;1.85;0.85;;;20.10;99.90;;;;;;5011548;28;20037;-75
2022/06/27 06:54:15;;;;;;;0.93;0.70;;;20.20;99.90;;;;;;5004016;28;20594;-75
2022/06/27 06:56:41;;;;;;;1.48;0.70;;;20.30;99.90;;;;;;5014697;28;20026;-76
2022/06/27 06:59:07;;;;;;;0.80;0.80;;;20.30;99.90;;;;;;5014187;28;20034;-74
2022/06/27 07:01:35;;;;;;;1.85;0.80;;;20.40;99.90;;;;;;5018281;28;20459;-74
2022/06/27 07:04:01;;;;;;;2.75;0.70;;;20.60;99.90;;;;;;5010491;28;20022;-74
2022/06/27 07:06:29;;;;;;;2.28;0.80;;;20.60;99.90;;;;;;5004479;28;20137;-75
2022/06/27 07:08:57;;;;;;;1.63;0.57;;;20.70;99.90;;;;;;5014303;28;20038;-75
2022/06/27 07:11:28;;;;;;;1.27;0.60;;;20.80;99.90;;;;;;5016351;28;20034;-75
2022/06/27 07:13:56;;;;;;;1.08;0.60;;;21.00;99.90;;;;;;4998043;28;20061;-76
2022/06/27 07:16:24;;;;;;;3.70;0.70;;;21.10;99.90;;;;;;5005787;28;20030;-75
2022/06/27 07:18:50;;;;;;;1.33;0.65;;;21.20;99.90;;;;;;5024287;28;20032;-76
2022/06/27 07:21:17;;;;;;;0.70;0.60;;;21.20;99.90;;;;;;5009149;28;20048;-74
2022/06/27 07:23:43;;;;;;;1.98;0.57;;;21.10;99.90;;;;;;5014738;28;20018;-74
2022/06/27 07:26:09;;;;;;;2.55;0.50;;;21.20;99.90;;;;;;5014042;28;20030;-75
2022/06/27 07:28:35;;;;;;;0.85;0.75;;;21.20;99.90;;;;;;5014370;28;20579;-76
2022/06/27 07:31:08;;;;;;;2.35;0.82;;;21.40;99.90;;;;;;5014105;28;20112;-76
2022/06/27 07:33:41;;;;;;;2.45;0.70;;;21.40;99.90;;;;;;5014303;28;20438;-76
2022/06/27 07:36:14;;;;;;;0.65;0.65;;;21.40;99.90;;;;;;5013190;28;20026;-75
2022/06/27 07:38:45;;;;;;;0.60;0.50;;;21.50;99.90;;;;;;5013293;28;20041;-75
2022/06/27 07:41:13;;;;;;;0.40;0.40;;;21.40;99.90;;;;;;5006589;28;20372;-75
2022/06/27 07:43:40;;;;;;;1.90;0.70;;;21.30;99.90;;;;;;5001850;28;20027;-76
2022/06/27 07:46:05;;;;;;;1.27;0.65;;;21.30;99.90;;;;;;5005952;28;20030;-79
2022/06/27 07:48:32;;;;;;;1.60;0.95;;;21.40;99.90;;;;;;5003373;28;20071;-76
2022/06/27 07:50:58;;;;;;;2.95;1.05;;;21.50;99.90;;;;;;5010115;28;20030;-75
2022/06/27 07:53:25;;;;;;;1.33;0.77;;;21.40;99.90;;;;;;5013316;28;20368;-76
2022/06/27 07:55:59;;;;;;;1.00;0.50;;;21.40;99.90;;;;;;5014259;28;20021;-77
2022/06/27 07:58:35;;;;;;;1.80;0.45;;;21.30;99.90;;;;;;5013982;28;20104;-78
2022/06/27 08:01:04;;;;;;;1.42;0.60;;;21.30;99.90;;;;;;5013755;28;20030;-77
2022/06/27 08:03:39;;;;;;;0.85;0.45;;;21.40;99.90;;;;;;5004662;28;20037;-78
2022/06/27 08:06:10;;;;;;;0.40;0.40;;;21.50;99.90;;;;;;5004898;28;20053;-77
2022/06/27 08:08:39;;;;;;;0.60;0.40;;;21.70;99.90;;;;;;5013627;28;20026;-78
2022/06/27 08:11:07;;;;;;;1.23;0.63;;;21.70;99.90;;;;;;5014030;28;20022;-79
2022/06/27 08:13:35;;;;;;;0.68;0.47;;;21.80;99.90;;;;;;5012200;28;20113;-78
2022/06/27 08:16:02;;;;;;;0.52;0.52;;;21.90;99.90;;;;;;5018418;28;20021;-77
2022/06/27 08:18:31;;;;;;;1.63;0.50;;;22.00;99.90;;;;;;5024750;28;20170;-78
2022/06/27 08:21:00;;;;;;;0.43;0.40;;;22.10;99.90;;;;;;5013122;28;20033;-78
2022/06/27 08:23:26;;;;;;;3.20;0.60;;;22.30;99.90;;;;;;5013340;28;20036;-77
2022/06/27 08:25:52;;;;;;;0.98;0.80;;;22.40;99.90;;;;;;5013270;28;20105;-78
2022/06/27 08:28:19;;;;;;;1.13;0.40;;;22.60;99.90;;;;;;5012657;28;20459;-76
2022/06/27 08:30:46;;;;;;;0.75;0.60;;;22.80;99.90;;;;;;5013524;28;20026;-77
2022/06/27 08:33:12;;;;;;;1.80;0.55;;;23.10;99.90;;;;;;4976591;28;20458;-78
2022/06/27 08:35:39;;;;;;;1.08;0.50;;;23.40;99.90;;;;;;4993358;28;20059;-77
2022/06/27 08:38:05;;;;;;;2.22;0.50;;;23.40;99.90;;;;;;4993980;28;20056;-78
2022/06/27 08:40:32;;;;;;;0.90;0.60;;;23.50;99.90;;;;;;4993517;28;20093;-77
2022/06/27 08:42:58;;;;;;;1.27;0.73;;;23.50;99.90;;;;;;4993056;28;20163;-77
2022/06/27 08:45:25;;;;;;;1.85;0.57;;;23.30;99.90;;;;;;4993524;28;20063;-77
2022/06/27 08:47:54;;;;;;;1.17;0.77;;;23.00;99.90;;;;;;4992800;28;20026;-77
2022/06/27 08:50:20;;;;;;;2.47;0.65;;;22.70;99.90;;;;;;4992911;28;20019;-76
2022/06/27 08:52:47;;;;;;;1.48;0.68;;;22.60;99.90;;;;;;4993195;28;20026;-79
2022/06/27 08:55:13;;;;;;;0.68;0.43;;;22.60;99.90;;;;;;4992714;28;20038;-77
2022/06/27 08:57:42;;;;;;;2.17;0.73;;;22.70;99.90;;;;;;4993863;28;20460;-77
2022/06/27 09:00:11;;;;;;;2.10;0.63;;;22.60;99.90;;;;;;4993630;28;20025;-77
2022/06/27 09:02:42;;;;;;;1.08;0.57;;;22.50;99.90;;;;;;5000292;28;20046;-78
2022/06/27 09:05:21;;;;;;;1.10;0.35;;;22.50;99.90;;;;;;5001918;28;20038;-78
2022/06/27 09:08:02;;;;;;;0.70;0.60;;;22.40;99.90;;;;;;4997702;28;20174;-77
2022/06/27 09:10:33;;;;;;;0.65;0.63;;;22.20;99.90;;;;;;4992645;28;20033;-77
2022/06/27 09:13:08;;;;;;;1.13;0.60;;;22.20;99.90;;;;;;5002366;28;20041;-77
2022/06/27 09:15:49;;;;;;;0.50;0.50;;;22.10;99.90;;;;;;4999177;28;20101;-76
2022/06/27 09:18:18;;;;;;;3.33;0.82;;;22.20;99.90;;;;;;4995815;28;20026;-76
2022/06/27 09:21:01;;;;;;;1.58;0.55;;;22.10;99.90;;;;;;4992774;28;20443;-74
2022/06/27 09:23:53;;;;;;;2.50;0.70;;;22.00;99.90;;;;;;4991912;28;20106;-74
2022/06/27 09:26:30;;;;;;;3.30;0.80;;;21.70;99.90;;;;;;4992523;28;20029;-76
2022/06/27 09:29:14;;;;;;;5.68;1.10;;;21.70;99.90;;;;;;4992713;28;20023;-76
2022/06/27 09:31:45;;;;;;;2.08;0.80;;;21.80;99.90;;;;;;4997938;28;20111;-76
2022/06/27 09:34:23;;;;;;;1.95;0.70;;;21.90;99.90;;;;;;4995480;28;20030;-76
2022/06/27 09:36:55;;;;;;;0.70;0.70;;;22.00;99.90;;;;;;5003532;28;20104;-76
2022/06/27 09:39:29;;;;;;;2.75;1.10;;;22.10;99.90;;;;;;5011440;28;20107;-76
2022/06/27 09:42:07;;;;;;;3.58;1.10;;;22.30;99.90;;;;;;5011903;28;20363;-75
2022/06/27 09:44:41;;;;;;;2.55;1.45;;;22.30;99.90;;;;;;5011244;28;20378;-75
2022/06/27 09:47:24;;;;;;;1.17;0.80;;;22.20;99.90;;;;;;5011943;28;20030;-75
2022/06/27 09:49:52;;;;;;;0.93;0.77;;;22.30;99.90;;;;;;5011572;28;20052;-75
2022/06/27 09:52:25;;;;;;;3.50;1.10;;;22.40;99.90;;;;;;5011109;28;20032;-73
2022/06/27 09:54:54;;;;;;;2.55;0.93;;;22.70;99.90;;;;;;5011279;28;20121;-74
2022/06/27 09:57:21;;;;;;;1.35;0.90;;;23.00;99.90;;;;;;5010799;28;20026;-74
2022/06/27 09:59:50;;;;;;;0.90;0.85;;;23.10;99.90;;;;;;5013888;28;20104;-74
2022/06/27 10:02:18;;;;;;;1.70;0.85;;;23.20;99.90;;;;;;5015064;28;20030;-73
2022/06/27 10:04:44;;;;;;;1.17;1.08;;;23.20;99.90;;;;;;5015359;28;20030;-74
2022/06/27 10:07:12;;;;;;;2.63;0.90;;;23.00;99.90;;;;;;5014780;28;20033;-73
2022/06/27 10:09:40;;;;;;;3.35;1.10;;;22.90;99.90;;;;;;5015347;28;20026;-76
2022/06/27 10:12:25;;;;;;;1.17;0.80;;;23.10;99.90;;;;;;5015279;28;20447;-75
2022/06/27 10:15:09;;;;;;;0.85;0.77;;;23.20;99.90;;;;;;5007220;28;20044;-76
2022/06/27 10:17:41;;;;;;;1.10;1.00;;;23.20;99.90;;;;;;5015675;28;20026;-75
2022/06/27 10:20:27;;;;;;;2.33;1.08;;;23.10;99.90;;;;;;5017172;28;20174;-76
2022/06/27 10:23:11;;;;;;;3.60;0.93;;;23.00;99.90;;;;;;5017378;28;20468;-75
2022/06/27 10:25:38;;;;;;;1.48;1.27;;;22.90;99.90;;;;;;5014983;28;20118;-75
2022/06/27 10:28:09;;;;;;;2.05;1.42;;;22.80;99.90;;;;;;5017627;28;20029;-75
2022/06/27 10:30:36;;;;;;;1.48;0.90;;;22.60;99.90;;;;;;5027687;28;20022;-76
2022/06/27 10:33:22;;;;;;;2.38;1.60;;;22.40;99.90;;;;;;5006514;28;20376;-75
2022/06/27 10:35:57;;;;;;;1.80;1.70;;;22.30;99.90;;;;;;4998191;28;20034;-76
2022/06/27 10:38:27;;;;;;;1.77;1.50;;;22.10;99.90;;;;;;4995141;28;20042;-76
2022/06/27 10:40:55;;;;;;;2.22;1.70;;;22.00;99.90;;;;;;4995015;28;20034;-76
2022/06/27 10:43:35;;;;;;;1.55;1.45;;;22.00;99.90;;;;;;4994631;28;20081;-76
2022/06/27 10:46:21;;;;;;;1.50;1.40;;;22.00;99.90;;;;;;4980292;28;20022;-75
2022/06/27 10:48:58;;;;;;;1.92;1.60;;;22.10;99.90;;;;;;4978938;28;20035;-75
2022/06/27 10:51:30;;;;;;;3.08;1.83;;;22.10;99.90;;;;;;4994263;28;20109;-76
2022/06/27 10:54:35;;;;;;;3.42;1.90;;;22.10;99.90;;;;;;4979552;28;20031;-76
2022/06/27 10:57:02;;;;;;;4.38;1.77;;;22.10;99.90;;;;;;4994545;28;20459;-75
2022/06/27 10:59:29;;;;;;;2.35;1.73;;;22.00;99.90;;;;;;4994574;28;20440;-75
2022/06/27 11:01:58;;;;;;;2.13;1.02;;;21.90;99.90;;;;;;4994912;28;20487;-75
2022/06/27 11:04:25;;;;;;;3.10;1.38;;;21.90;99.90;;;;;;4994415;28;20018;-76
2022/06/27 11:06:59;;;;;;;1.92;1.38;;;21.90;99.90;;;;;;4994588;28;20026;-76
2022/06/27 11:09:43;;;;;;;2.38;1.50;;;22.00;99.90;;;;;;4993864;28;20025;-76
2022/06/27 11:12:10;;;;;;;1.95;1.65;;;22.00;99.90;;;;;;4980782;28;20356;-76
2022/06/27 11:14:59;;;;;;;2.25;1.58;;;22.10;99.90;;;;;;4994175;28;20018;-74
2022/06/27 11:17:34;;;;;;;2.33;1.10;;;22.30;99.90;;;;;;4994056;28;20031;-76
2022/06/27 11:20:23;;;;;;;2.25;1.23;;;22.30;99.90;;;;;;4979502;28;20050;-75
2022/06/27 11:22:52;;;;;;;4.35;2.00;;;22.20;99.90;;;;;;4994476;28;20038;-76
2022/06/27 11:25:22;;;;;;;1.73;1.40;;;22.10;99.90;;;;;;4998024;28;20030;-76
2022/06/27 11:27:51;;;;;;;2.15;1.52;;;22.10;99.90;;;;;;5000076;28;20476;-74
2022/06/27 11:33:17;;;;;;;2.30;1.85;;;21.90;99.90;;;;;;5011399;28;20052;-75
2022/06/27 11:35:44;;;;;;;3.05;1.55;;;21.90;99.90;;;;;;4995464;28;20037;-76
2022/06/27 11:38:10;;;;;;;3.83;1.65;;;21.80;99.90;;;;;;5014155;28;20107;-75
2022/06/27 11:40:37;;;;;;;3.75;1.70;;;21.80;99.90;;;;;;5013259;28;20046;-75
2022/06/27 11:43:03;;;;;;;1.52;1.40;;;21.80;99.90;;;;;;5013777;28;20116;-76
2022/06/27 11:45:39;;;;;;;2.72;1.58;;;21.80;99.90;;;;;;4993399;28;20552;-76
2022/06/27 11:48:11;;;;;;;1.40;1.30;;;21.80;99.90;;;;;;5004763;28;20026;-75
2022/06/27 11:50:36;;;;;;;2.60;1.70;;;21.80;99.90;;;;;;5007057;28;20030;-75
2022/06/27 11:53:06;;;;;;;3.53;1.40;;;21.70;99.90;;;;;;5002622;28;20116;-76
2022/06/27 11:55:31;;;;;;;3.28;1.65;;;21.60;99.90;;;;;;5012927;28;20438;-76
2022/06/27 11:57:58;;;;;;;1.67;1.58;;;21.50;99.90;;;;;;5012966;28;20026;-76
2022/06/27 12:00:27;;;;;;;4.95;2.42;;;21.50;99.90;;;;;;5012838;28;20033;-75
2022/06/27 12:03:05;;;;;;;2.20;1.95;;;21.50;99.90;;;;;;4997504;28;20029;-76
2022/06/27 12:05:31;;;;;;;3.67;1.80;;;21.40;99.90;;;;;;5013139;28;20097;-76
2022/06/27 12:08:23;;;;;;;2.83;1.77;;;21.40;99.90;;;;;;5014688;28;20489;-77
2022/06/27 12:13:39;;;;;;;1.85;1.30;;;21.30;99.90;;;;;;5022527;28;20041;-75
2022/06/27 12:16:08;;;;;;;3.17;1.63;;;21.30;99.90;;;;;;5033124;28;20060;-74
2022/06/27 12:18:35;;;;;;;1.40;1.30;;;21.40;99.90;;;;;;5011426;28;20498;-73
2022/06/27 12:21:00;;;;;;;1.30;1.20;;;21.50;99.90;;;;;;4994376;28;20037;-77
2022/06/27 12:23:26;;;;;;;2.25;1.63;;;21.40;99.90;;;;;;5011627;28;20025;-74
2022/06/27 12:25:51;;;;;;;1.60;1.50;;;21.40;99.90;;;;;;5000997;28;20108;-74
2022/06/27 12:28:17;;;;;;;2.75;1.55;;;21.40;99.90;;;;;;4998979;28;20038;-72
2022/06/27 12:30:42;;;;;;;2.80;1.52;;;21.40;99.90;;;;;;5007077;28;20031;-75
2022/06/27 12:33:08;;;;;;;3.85;1.60;;;21.40;99.90;;;;;;5003507;28;20046;-75
2022/06/27 12:35:35;;;;;;;2.03;1.60;;;21.40;99.90;;;;;;5004440;28;20030;-75
2022/06/27 12:38:02;;;;;;;3.45;1.75;;;21.30;99.90;;;;;;5003441;28;20057;-76
2022/06/27 12:40:29;;;;;;;2.72;1.45;;;21.30;99.90;;;;;;4992642;28;20035;-76
2022/06/27 12:42:54;;;;;;;3.10;1.60;;;21.20;99.90;;;;;;4992877;28;20045;-76
2022/06/27 12:45:20;;;;;;;1.58;1.48;;;21.10;99.90;;;;;;4992270;28;20034;-75
2022/06/27 12:47:46;;;;;;;3.67;1.40;;;21.10;99.90;;;;;;4999084;28;20430;-75
2022/06/27 12:50:12;;;;;;;1.60;1.48;;;21.10;99.90;;;;;;4992597;28;20427;-74
2022/06/27 12:52:38;;;;;;;1.70;1.60;;;21.00;99.90;;;;;;4997433;28;20124;-74
2022/06/27 12:55:04;;;;;;;1.63;1.42;;;21.00;99.90;;;;;;5006223;28;20065;-75
2022/06/27 12:57:30;;;;;;;1.88;1.77;;;21.00;99.90;;;;;;4992273;28;20035;-75
2022/06/27 12:59:56;;;;;;;1.70;1.55;;;20.90;99.90;;;;;;4993029;28;20034;-74
2022/06/27 13:02:21;;;;;;;5.32;1.65;;;20.90;99.90;;;;;;4991828;28;20046;-74
2022/06/27 13:04:47;;;;;;;4.65;1.77;;;20.80;99.90;;;;;;4992762;28;20471;-74